createdAt,value
2023-05-10T00:03:37.134Z,11.81
2023-05-10T00:08:49.085Z,11.81
2023-05-10T00:13:53.219Z,11.81
2023-05-10T00:18:57.149Z,11.82
2023-05-10T00:23:58.649Z,11.84
2023-05-10T00:29:00.839Z,11.80
2023-05-10T00:34:02.464Z,11.78
2023-05-10T00:39:04.654Z,11.82
2023-05-10T00:44:06.380Z,11.80
2023-05-10T00:49:07.870Z,11.77
2023-05-10T00:54:12.070Z,11.80
2023-05-10T00:59:13.548Z,11.80
2023-05-10T01:04:15.763Z,11.85
2023-05-10T01:09:17.222Z,11.90
2023-05-10T01:14:20.767Z,11.90
2023-05-10T01:19:29.081Z,11.94
2023-05-10T01:24:55.273Z,11.97
2023-05-10T01:30:14.659Z,12.03
2023-05-10T01:35:18.726Z,12.02
2023-05-10T01:40:31.280Z,12.00
2023-05-10T01:45:46.568Z,11.99
2023-05-10T01:50:51.964Z,12.03
2023-05-10T01:55:56.151Z,12.01
2023-05-10T02:01:01.699Z,11.98
2023-05-10T02:06:04.508Z,11.99
2023-05-10T02:11:06.725Z,11.99
2023-05-10T02:16:08.493Z,12.00
2023-05-10T02:21:11.332Z,11.98
2023-05-10T02:26:14.827Z,11.95
2023-05-10T02:31:16.931Z,11.89
2023-05-10T02:36:21.010Z,11.88
2023-05-10T02:41:24.159Z,11.89
2023-05-10T02:46:25.838Z,11.88
2023-05-10T02:51:32.630Z,11.88
2023-05-10T02:56:36.798Z,11.80
2023-05-10T03:01:38.353Z,11.79
2023-05-10T03:06:40.772Z,11.73
2023-05-10T03:12:02.900Z,11.64
2023-05-10T03:17:12.600Z,11.57
2023-05-10T03:22:18.880Z,11.54
2023-05-10T03:27:21.292Z,11.58
2023-05-10T03:32:23.755Z,11.53
2023-05-10T03:37:25.245Z,11.55
2023-05-10T03:42:26.696Z,11.56
2023-05-10T03:47:28.264Z,11.51
2023-05-10T03:52:29.765Z,11.47
2023-05-10T03:57:31.245Z,11.52
2023-05-10T04:02:32.830Z,11.46
2023-05-10T04:07:34.492Z,11.45
2023-05-10T04:12:35.971Z,11.47
2023-05-10T04:17:37.561Z,11.51
2023-05-10T04:22:39.237Z,11.47
2023-05-10T04:27:40.672Z,11.41
2023-05-10T04:32:42.214Z,11.42
2023-05-10T04:37:44.151Z,11.48
2023-05-10T04:42:45.575Z,11.50
2023-05-10T04:47:47.017Z,11.53
2023-05-10T04:52:48.482Z,11.53
2023-05-10T04:57:49.951Z,11.51
2023-05-10T05:02:51.445Z,11.53
2023-05-10T05:07:53.083Z,11.48
2023-05-10T05:12:54.515Z,11.61
2023-05-10T05:17:56.087Z,11.60
2023-05-10T05:22:57.577Z,11.70
2023-05-10T05:27:59.046Z,11.63
2023-05-10T05:33:00.632Z,11.67
2023-05-10T05:38:02.179Z,11.68
2023-05-10T05:43:03.577Z,11.75
2023-05-10T05:48:05.615Z,11.69
2023-05-10T05:53:07.110Z,11.66
2023-05-10T05:58:08.523Z,11.73
2023-05-10T06:03:10.042Z,11.71
2023-05-10T06:08:11.696Z,11.77
2023-05-10T06:13:13.246Z,11.80
2023-05-10T06:18:14.748Z,11.77
2023-05-10T06:23:16.352Z,11.77
2023-05-10T06:28:17.866Z,11.81
2023-05-10T06:33:19.376Z,11.91
2023-05-10T06:38:20.789Z,11.90
2023-05-10T06:43:22.317Z,11.94
2023-05-10T06:48:24.098Z,12.00
2023-05-10T06:53:25.544Z,12.02
2023-05-10T06:58:27.085Z,11.99
2023-05-10T07:03:28.485Z,12.02
2023-05-10T07:08:31.369Z,11.91
2023-05-10T07:13:32.955Z,12.04
2023-05-10T07:18:35.006Z,12.03
2023-05-10T07:23:36.547Z,12.11
2023-05-10T07:28:38.603Z,12.00
2023-05-10T07:33:40.963Z,12.06
2023-05-10T07:38:42.375Z,12.05
2023-05-10T07:43:43.847Z,12.28
2023-05-10T07:48:45.256Z,12.37
2023-05-10T07:53:46.686Z,12.67
2023-05-10T07:58:48.236Z,12.81
2023-05-10T08:03:50.179Z,12.99
2023-05-10T08:08:52.434Z,12.70
2023-05-10T08:13:53.971Z,12.61
2023-05-10T08:18:56.384Z,12.41
2023-05-10T08:23:58.762Z,12.48
2023-05-10T08:29:00.222Z,12.50
2023-05-10T08:34:01.774Z,12.45
2023-05-10T08:39:03.335Z,12.56
2023-05-10T08:44:06.456Z,12.67
2023-05-10T08:49:11.277Z,12.95
2023-05-10T08:54:13.512Z,12.96
2023-05-10T08:59:15.207Z,13.01
2023-05-10T09:04:16.822Z,13.44
2023-05-10T09:09:19.522Z,13.58
2023-05-10T09:14:21.397Z,13.63
2023-05-10T09:19:22.967Z,13.57
2023-05-10T09:24:30.450Z,13.43
2023-05-10T09:29:43.827Z,13.59
2023-05-10T09:34:45.954Z,13.39
2023-05-10T09:39:47.397Z,13.33
2023-05-10T09:44:49.009Z,13.60
2023-05-10T09:49:52.118Z,13.68
2023-05-10T09:54:55.423Z,13.72
2023-05-10T09:59:58.490Z,13.85
2023-05-10T10:05:04.153Z,13.97
2023-05-10T10:10:06.826Z,13.99
2023-05-10T10:15:10.470Z,13.87
2023-05-10T10:20:12.493Z,14.00
2023-05-10T10:25:16.355Z,14.05
2023-05-10T10:30:36.565Z,13.86
2023-05-10T10:35:38.368Z,14.13
2023-05-10T10:40:39.896Z,14.19
2023-05-10T10:45:42.190Z,14.25
2023-05-10T10:50:47.831Z,14.51
2023-05-10T10:55:49.812Z,14.57
2023-05-10T11:00:51.497Z,14.30
2023-05-10T11:05:59.514Z,14.49
2023-05-10T11:11:00.984Z,14.21
2023-05-10T11:16:17.909Z,14.31
2023-05-10T11:21:19.769Z,14.46
2023-05-10T11:26:26.533Z,14.64
2023-05-10T11:31:28.731Z,14.61
2023-05-10T11:36:35.095Z,14.62
2023-05-10T11:41:36.587Z,14.72
2023-05-10T11:46:38.092Z,14.98
2023-05-10T11:51:44.553Z,15.04
2023-05-10T11:56:46.477Z,15.43
2023-05-10T12:01:48.085Z,15.27
2023-05-10T12:06:49.698Z,15.23
2023-05-10T12:11:57.935Z,15.48
2023-05-10T12:16:59.397Z,15.53
2023-05-10T12:22:01.039Z,15.70
2023-05-10T12:32:46.998Z,15.71
2023-05-10T12:37:49.108Z,15.96
2023-05-10T12:42:53.087Z,16.04
2023-05-10T12:47:54.699Z,16.16
2023-05-10T12:52:56.186Z,16.38
2023-05-10T12:57:57.781Z,16.22
2023-05-10T13:02:59.218Z,16.34
2023-05-10T13:08:00.702Z,16.67
2023-05-10T13:13:02.089Z,16.34
2023-05-10T13:18:03.703Z,16.32
2023-05-10T13:23:05.383Z,15.49
2023-05-10T13:28:06.962Z,15.14
2023-05-10T13:33:08.403Z,14.89
2023-05-10T13:38:10.293Z,14.84
2023-05-10T13:43:11.842Z,14.53
2023-05-10T13:48:13.262Z,14.70
2023-05-10T13:53:15.394Z,14.46
2023-05-10T13:58:16.836Z,14.31
2023-05-10T14:03:18.515Z,14.01
2023-05-10T14:08:20.068Z,14.01
2023-05-10T14:13:21.531Z,13.56
2023-05-10T14:18:23.068Z,13.70
2023-05-10T14:23:29.476Z,13.47
2023-05-10T14:28:30.981Z,13.28
2023-05-10T14:33:32.422Z,13.53
2023-05-10T14:38:34.848Z,13.45
2023-05-10T14:43:37.268Z,13.63
2023-05-10T14:48:38.648Z,13.45
2023-05-10T14:53:40.084Z,13.41
2023-05-10T14:58:41.475Z,13.67
2023-05-10T15:03:42.883Z,13.69
2023-05-10T15:08:44.676Z,13.85
2023-05-10T15:13:46.125Z,14.23
2023-05-10T15:18:47.631Z,14.27
2023-05-10T15:23:49.097Z,14.51
2023-05-10T15:28:50.563Z,14.15
2023-05-10T15:33:52.220Z,14.46
2023-05-10T15:38:56.892Z,14.79
2023-05-10T15:44:00.690Z,14.48
2023-05-10T15:49:02.494Z,14.77
2023-05-10T15:54:07.771Z,14.85
2023-05-10T15:59:11.602Z,14.70
2023-05-10T16:04:15.766Z,14.87
2023-05-10T16:09:17.309Z,15.01
2023-05-10T16:14:20.471Z,14.66
2023-05-10T16:19:22.397Z,15.20
2023-05-10T16:24:24.144Z,15.26
2023-05-10T16:29:26.328Z,14.99
2023-05-10T16:34:27.782Z,15.03
2023-05-10T16:39:29.261Z,14.93
2023-05-10T16:44:30.710Z,15.00
2023-05-10T16:49:32.268Z,15.44
2023-05-10T16:54:33.706Z,15.42
2023-05-10T16:59:35.122Z,15.57
2023-05-10T17:04:36.691Z,15.73
2023-05-10T17:09:38.090Z,15.56
2023-05-10T17:14:40.128Z,15.68
2023-05-10T17:19:44.954Z,15.37
2023-05-10T17:24:46.549Z,15.31
2023-05-10T17:29:47.966Z,15.26
2023-05-10T17:34:49.400Z,15.10
2023-05-10T17:39:50.829Z,15.17
2023-05-10T17:44:52.354Z,15.05
2023-05-10T17:49:54.721Z,15.09
2023-05-10T17:54:56.326Z,15.21
2023-05-10T17:59:57.814Z,14.85
2023-05-10T18:05:01.323Z,14.81
2023-05-10T18:10:02.885Z,14.87
2023-05-10T18:15:04.683Z,14.76
2023-05-10T18:20:07.356Z,14.62
2023-05-10T18:25:09.290Z,14.56
2023-05-10T18:30:12.478Z,14.61
2023-05-10T18:35:14.470Z,14.50
2023-05-10T18:40:17.906Z,14.42
2023-05-10T18:45:20.199Z,14.20
2023-05-10T18:50:22.535Z,14.25
2023-05-10T18:55:25.799Z,14.25
2023-05-10T19:00:27.385Z,14.23
2023-05-10T19:05:31.621Z,14.20
2023-05-10T19:10:44.679Z,14.16
2023-05-10T19:15:52.085Z,13.98
2023-05-10T19:21:11.481Z,13.79
2023-05-10T19:26:16.140Z,13.75
2023-05-10T19:31:18.037Z,13.65
2023-05-10T19:36:28.234Z,13.58
2023-05-10T19:41:31.126Z,13.58
2023-05-10T19:46:35.812Z,13.44
2023-05-10T19:51:37.537Z,13.49
2023-05-10T19:56:39.270Z,13.25
2023-05-10T20:01:40.780Z,13.21
2023-05-10T20:06:43.554Z,13.24
2023-05-10T20:11:46.589Z,13.26
2023-05-10T20:16:48.551Z,13.25
2023-05-10T20:21:50.362Z,13.25
2023-05-10T20:26:52.025Z,13.28
2023-05-10T20:31:54.013Z,13.18
2023-05-10T20:36:58.698Z,13.19
2023-05-10T20:42:00.654Z,13.12
2023-05-10T20:47:02.579Z,12.97
2023-05-10T20:52:06.616Z,12.80
2023-05-10T20:57:11.253Z,12.76
2023-05-10T21:02:13.373Z,12.87
2023-05-10T21:07:15.363Z,12.63
2023-05-10T21:12:18.532Z,12.61
2023-05-10T21:17:21.612Z,12.62
2023-05-10T21:22:24.448Z,12.58
2023-05-10T21:27:28.546Z,12.66
2023-05-10T21:32:32.473Z,12.54
2023-05-10T21:37:34.153Z,12.54
2023-05-10T21:42:42.377Z,12.47
2023-05-10T21:47:48.620Z,12.40
2023-05-10T21:52:50.435Z,12.33
2023-05-10T21:57:51.984Z,12.31
2023-05-10T22:02:59.526Z,12.28
2023-05-10T22:08:05.715Z,12.30
2023-05-10T22:13:14.672Z,12.26
2023-05-10T22:18:19.303Z,12.11
2023-05-10T22:23:23.303Z,12.02
2023-05-10T22:28:24.897Z,12.17
2023-05-10T22:33:30.774Z,12.15
2023-05-10T22:38:35.234Z,12.19
2023-05-10T22:43:36.843Z,12.20
2023-05-10T22:48:38.531Z,12.14
2023-05-10T22:53:40.091Z,12.18
2023-05-10T22:58:41.744Z,12.21
2023-05-10T23:03:43.415Z,12.10
2023-05-10T23:08:46.416Z,12.10
2023-05-10T23:13:50.832Z,12.11
2023-05-10T23:18:52.441Z,12.12
2023-05-10T23:23:54.865Z,12.08
2023-05-10T23:28:56.460Z,11.99
2023-05-10T23:34:00.117Z,11.93
2023-05-10T23:39:02.843Z,11.99
2023-05-10T23:44:04.690Z,12.02
2023-05-10T23:49:06.320Z,12.06
2023-05-10T23:54:09.362Z,11.98
2023-05-10T23:59:11.134Z,12.07
